Flight Track Log - Related Links

Times and Time Zones

All times are in EST time to prevent confusion due to time zone crossing. See the CSN8315 flight status page for this flight to view local times or setup timezone preferences in your user account.

Time Position Orientation Groundspeed Altitude Reporting Facility
EST Latitude Longitude Course Direction KTS MPH feet Rate Location/Type
Mon 04:19:00 AM 44.1272 129.2858 207° Southwest  Level Estimated
Mon 04:20:00 AM 44.0478 129.2296 207° Southwest  Level Estimated
Mon 04:21:00 AM 43.9683 129.1736 207° Southwest  Level Estimated
Mon 04:22:00 AM 43.8888 129.1177 207° Southwest  Level Estimated
Mon 04:23:00 AM 43.8092 129.0620 207° Southwest  Level Estimated
Mon 04:24:00 AM 43.7297 129.0064 207° Southwest  Level Estimated
Mon 04:25:00 AM 43.6501 128.9510 207° Southwest  Level Estimated
Mon 04:26:00 AM 43.5705 128.8957 207° Southwest  Level Estimated
Mon 04:27:00 AM 43.4908 128.8405 207° Southwest  Level Estimated
Mon 04:28:00 AM 43.4112 128.7856 207° Southwest  Level Estimated
Mon 04:29:00 AM 43.3315 128.7307 207° Southwest  Level Estimated
Mon 04:30:00 AM 43.2518 128.6760 207° Southwest  Level Estimated
Mon 04:31:00 AM 43.1720 128.6214 207° Southwest  Level Estimated
Mon 04:32:00 AM 43.0922 128.5670 206° Southwest  Level Estimated
Mon 04:33:00 AM 43.0124 128.5127 206° Southwest  Level Estimated
Mon 04:34:00 AM 42.9326 128.4586 206° Southwest  Level Estimated
Mon 04:35:00 AM 42.8528 128.4046 206° Southwest  Level Estimated
Mon 04:36:00 AM 42.7729 128.3507 206° Southwest  Level Estimated
Mon 04:37:00 AM 42.6930 128.2970 206° Southwest  Level Estimated
Mon 04:38:00 AM 42.6131 128.2434 206° Southwest  Level Estimated
Mon 04:39:00 AM 42.5331 128.1900 206° Southwest  Level Estimated
Mon 04:40:00 AM 42.4532 128.1367 206° Southwest  Level Estimated
Mon 04:41:00 AM 42.3732 128.0835 206° Southwest  Level Estimated
Mon 04:42:00 AM 42.2931 128.0305 206° Southwest  Level Estimated
Mon 04:43:00 AM 42.2131 127.9776 206° Southwest  Level Estimated
Mon 04:44:00 AM 42.1330 127.9248 206° Southwest  Level Estimated
Mon 04:45:00 AM 42.0529 127.8722 206° Southwest  Level Estimated
Mon 04:46:00 AM 41.9728 127.8197 206° Southwest  Level Estimated
Mon 04:47:00 AM 41.8927 127.7673 206° Southwest  Level Estimated
Mon 04:48:00 AM 41.8125 127.7151 206° Southwest  Level Estimated
Mon 04:49:00 AM 41.7323 127.6630 206° Southwest  Level Estimated
Mon 04:50:00 AM 41.6521 127.6110 206° Southwest  Level Estimated
Mon 04:51:00 AM 41.5718 127.5591 206° Southwest  Level Estimated
Mon 04:52:00 AM 41.4916 127.5074 206° Southwest  Level Estimated
Mon 04:53:00 AM 41.4113 127.4558 206° Southwest  Level Estimated
Mon 04:54:00 AM 41.3310 127.4044 206° Southwest  Level Estimated
Mon 04:55:00 AM 41.2507 127.3530 206° Southwest  Level Estimated
Mon 04:56:00 AM 41.1703 127.3018 206° Southwest  Level Estimated
Mon 04:57:00 AM 41.0899 127.2507 206° Southwest  Level Estimated
Mon 04:58:00 AM 41.0095 127.1998 206° Southwest  Level Estimated
Mon 04:59:00 AM 40.9291 127.1489 206° Southwest  Level Estimated
Mon 05:00:00 AM 40.8487 127.0982 205° Southwest  Level Estimated
Mon 05:01:00 AM 40.7682 127.0476 205° Southwest  Level Estimated
Mon 05:02:00 AM 40.6877 126.9971 205° Southwest  Level Estimated
Mon 05:03:00 AM 40.6072 126.9468 205° Southwest  Level Estimated
Mon 05:04:00 AM 40.5267 126.8966 205° Southwest  Level Estimated
Mon 05:05:00 AM 40.4461 126.8465 205° Southwest  Level Estimated
Mon 05:06:00 AM 40.3656 126.7965 205° Southwest  Level Estimated
Mon 05:07:00 AM 40.2850 126.7466 205° Southwest  Level Estimated
Mon 05:08:00 AM 40.2043 126.6969 205° Southwest  Level Estimated
Mon 05:09:00 AM 40.1237 126.6473 205° Southwest  Level Estimated
Mon 05:10:00 AM 40.0430 126.5977 205° Southwest  Level Estimated
Mon 05:11:00 AM 39.9623 126.5484 205° Southwest  Level Estimated
Mon 05:12:00 AM 39.8816 126.4991 205° Southwest  Level Estimated
Mon 05:13:00 AM 39.8009 126.4499 205° Southwest  Level Estimated
Mon 05:14:00 AM 39.7202 126.4009 205° Southwest  Level Estimated
Mon 05:15:00 AM 39.6394 126.3519 205° Southwest  Level Estimated
Mon 05:16:00 AM 39.5587 126.3031 205° Southwest  Level Estimated
Mon 05:17:00 AM 39.4779 126.2544 205° Southwest  Level Estimated
Mon 05:18:00 AM 39.3970 126.2058 205° Southwest  Level Estimated
Mon 05:19:00 AM 39.3162 126.1573 205° Southwest  Level Estimated
Mon 05:20:00 AM 39.2353 126.1090 205° Southwest  Level Estimated
Mon 05:21:00 AM 39.1544 126.0607 205° Southwest  Level Estimated
Mon 05:22:00 AM 39.0735 126.0126 205° Southwest  Level Estimated
Mon 05:23:00 AM 38.9926 125.9646 205° Southwest  Level Estimated
Mon 05:24:00 AM 38.9117 125.9166 205° Southwest  Level Estimated
Mon 05:25:00 AM 38.8307 125.8688 205° Southwest  Level Estimated
Mon 05:26:00 AM 38.7497 125.8211 205° Southwest  Level Estimated
Mon 05:27:00 AM 38.6687 125.7735 205° Southwest  Level Estimated
Mon 05:28:00 AM 38.5877 125.7260 205° Southwest  Level Estimated
Mon 05:29:00 AM 38.5067 125.6786 205° Southwest  Level Estimated
Mon 05:30:00 AM 38.4256 125.6314 205° Southwest  Level Estimated
Mon 05:31:00 AM 38.3445 125.5842 205° Southwest  Level Estimated
Mon 05:32:00 AM 38.2634 125.5371 204° Southwest  Level Estimated
Mon 05:33:00 AM 38.1823 125.4902 204° Southwest  Level Estimated
Mon 05:34:00 AM 38.1012 125.4433 204° Southwest  Level Estimated
Mon 05:35:00 AM 38.0200 125.3966 204° Southwest  Level Estimated
Mon 05:36:00 AM 37.9388 125.3499 204° Southwest  Level Estimated
Mon 05:37:00 AM 37.8577 125.3034 204° Southwest  Level Estimated
Mon 05:38:00 AM 37.7764 125.2569 204° Southwest  Level Estimated
Mon 05:39:00 AM 37.6952 125.2106 204° Southwest  Level Estimated
Mon 05:40:00 AM 37.6140 125.1644 204° Southwest  Level Estimated
Mon 05:41:00 AM 37.5327 125.1182 204° Southwest  Level Estimated
Mon 05:42:00 AM 37.4514 125.0722 204° Southwest  Level Estimated
Mon 05:43:00 AM 37.3701 125.0262 204° Southwest  Level Estimated
Mon 05:44:00 AM 37.2888 124.9804 204° Southwest  Level Estimated
Mon 05:45:00 AM 37.2075 124.9347 204° Southwest  Level Estimated
Mon 05:46:00 AM 37.1261 124.8890 204° Southwest  Level Estimated
Mon 05:47:00 AM 37.0448 124.8435 204° Southwest  Level Estimated
Mon 05:48:00 AM 36.9634 124.7980 204° Southwest  Level Estimated
Mon 05:49:00 AM 36.8820 124.7527 204° Southwest  Level Estimated
Mon 05:50:00 AM 36.8005 124.7074 204° Southwest  Level Estimated
Mon 05:51:00 AM 36.7191 124.6623 204° Southwest  Level Estimated
Mon 05:52:00 AM 36.6376 124.6172 204° Southwest  Level Estimated
Mon 05:53:00 AM 36.5562 124.5723 204° Southwest  Level Estimated
Mon 05:54:00 AM 36.4747 124.5274 204° Southwest  Level Estimated
Mon 05:55:00 AM 36.3932 124.4826 204° Southwest  Level Estimated
Mon 05:56:00 AM 36.3116 124.4379 204° Southwest  Level Estimated
Mon 05:57:00 AM 36.2301 124.3933 204° Southwest  Level Estimated
Mon 05:58:00 AM 36.1485 124.3488 204° Southwest  Level Estimated
Mon 05:59:00 AM 36.0670 124.3044 204° Southwest  Level Estimated
Mon 06:00:00 AM 35.9854 124.2601 204° Southwest  Level Estimated
Mon 06:01:00 AM 35.9038 124.2159 204° Southwest  Level Estimated
Mon 06:02:00 AM 35.8222 124.1718 204° Southwest  Level Estimated
Mon 06:03:00 AM 35.7405 124.1277 204° Southwest  Level Estimated
Mon 06:04:00 AM 35.6589 124.0838 204° Southwest  Level Estimated
Mon 06:05:00 AM 35.5772 124.0399 204° Southwest  Level Estimated
Mon 06:06:00 AM 35.4955 123.9961 204° Southwest  Level Estimated
Mon 06:07:00 AM 35.4138 123.9525 204° Southwest  Level Estimated
Mon 06:08:00 AM 35.3321 123.9089 204° Southwest  Level Estimated
Mon 06:09:00 AM 35.2504 123.8654 203° Southwest  Level Estimated
Mon 06:10:00 AM 35.1686 123.8220 203° Southwest  Level Estimated
Mon 06:11:00 AM 35.0869 123.7786 203° Southwest  Level Estimated
Mon 06:12:00 AM 35.0051 123.7354 203° Southwest  Level Estimated
Mon 06:13:00 AM 34.9233 123.6923 203° Southwest  Level Estimated
Mon 06:14:00 AM 34.8415 123.6492 203° Southwest  Level Estimated
Mon 06:15:00 AM 34.7597 123.6062 203° Southwest  Level Estimated
Mon 06:16:00 AM 34.6778 123.5633 203° Southwest  Level Estimated
Mon 06:17:00 AM 34.5960 123.5205 203° Southwest  Level Estimated
Mon 06:18:00 AM 34.5141 123.4778 203° Southwest  Level Estimated
Mon 06:19:00 AM 34.4322 123.4351 203° Southwest  Level Estimated
Mon 06:20:00 AM 34.3503 123.3925 203° Southwest  Level Estimated
Mon 06:21:00 AM 34.2684 123.3501 203° Southwest  Level Estimated
Mon 06:22:00 AM 34.1865 123.3077 203° Southwest  Level Estimated
Mon 06:23:00 AM 34.1045 123.2654 203° Southwest  Level Estimated
Mon 06:24:00 AM 34.0226 123.2231 203° Southwest  Level Estimated
Mon 06:25:00 AM 33.9406 123.1810 203° Southwest  Level Estimated
Mon 06:26:00 AM 33.8586 123.1389 203° Southwest  Level Estimated
Mon 06:27:00 AM 33.7766 123.0969 203° Southwest  Level Estimated
Mon 06:28:00 AM 33.6946 123.0550 203° Southwest  Level Estimated
Mon 06:29:00 AM 33.6126 123.0132 203° Southwest  Level Estimated
Mon 06:30:00 AM 33.5305 122.9714 203° Southwest  Level Estimated
Mon 06:31:00 AM 33.4485 122.9298 203° Southwest  Level Estimated
Mon 06:32:00 AM 33.3664 122.8882 203° Southwest  Level Estimated
Mon 06:33:00 AM 33.2843 122.8467 203° Southwest  Level Estimated
Mon 06:34:00 AM 33.2022 122.8052 203° Southwest  Level Estimated
Mon 06:35:00 AM 33.1201 122.7639 203° Southwest  Level Estimated
Mon 06:36:00 AM 33.0380 122.7226 203° Southwest  Level Estimated
Mon 06:37:00 AM 32.9559 122.6814 203° Southwest  Level Estimated
Mon 06:38:00 AM 32.8737 122.6403 203° Southwest  Level Estimated
Mon 06:39:00 AM 32.7915 122.5992 203° Southwest  Level Estimated
Mon 06:40:00 AM 32.7094 122.5582 203° Southwest  Level Estimated
Mon 06:41:00 AM 32.6272 122.5173 203° Southwest  Level Estimated
Mon 06:42:00 AM 32.5450 122.4765 203° Southwest  Level Estimated
Mon 06:43:00 AM 32.4627 122.4358 203° Southwest  Level Estimated
Mon 06:44:00 AM 32.3805 122.3951 203° Southwest  Level Estimated
Mon 06:45:00 AM 32.2983 122.3545 203° Southwest  Level Estimated
Mon 06:46:00 AM 32.2160 122.3140 203° Southwest  Level Estimated
Mon 06:47:00 AM 32.1337 122.2735 203° Southwest  Level Estimated
Mon 06:48:00 AM 32.0515 122.2331 203° Southwest  Level Estimated
Mon 06:49:00 AM 31.9692 122.1928 203° Southwest  Level Estimated
Mon 06:50:00 AM 31.8869 122.1526 203° Southwest  Level Estimated
Mon 06:51:00 AM 31.8045 122.1124 203° Southwest  Level Estimated
Mon 06:52:00 AM 31.7222 122.0723 203° Southwest  Level Estimated
Mon 06:53:00 AM 31.6399 122.0323 202° Southwest  Level Estimated
Mon 06:54:00 AM 31.5575 121.9924 202° Southwest  Level Estimated
Mon 06:55:00 AM 31.4751 121.9525 202° Southwest  Level Estimated
Mon 06:56:00 AM 31.3927 121.9127 202° Southwest  Level Estimated
Mon 06:57:00 AM 31.3103 121.8729 202° Southwest  Level Estimated
Mon 06:58:00 AM 31.2279 121.8333 202° Southwest  Level Estimated
Mon 06:59:00 AM 31.1455 121.7937 202° Southwest  Level Estimated
Mon 07:00:00 AM 31.1428 121.7924 202° Southwest  Level Estimated
Mon 07:01:00 AM 31.1428 121.7924 221° Southwest  Level Estimated
Mon 07:02:00 AM 31.1428 121.7924 221° Southwest  Level Estimated
Mon 07:03:00 AM 31.1428 121.7924 221° Southwest  Level Estimated
Mon 07:04:00 AM 31.1428 121.7924 221° Southwest  Level Estimated
Mon 07:05:00 AM 31.1428 121.7924 221° Southwest  Level Estimated
Mon 07:06:00 AM 31.1428 121.7924 221° Southwest  Level Estimated
Mon 07:07:00 AM 31.1428 121.7924 221° Southwest  Level Estimated
Mon 07:08:00 AM 31.1428 121.7924 221° Southwest  Level Estimated
Mon 07:09:00 AM 31.1428 121.7924 221° Southwest  Level Estimated
Mon 07:10:00 AM 31.1428 121.7924 221° Southwest  Level Estimated
Mon 07:11:00 AM 31.1428 121.7924 221° Southwest  Level Estimated
Mon 07:12:00 AM 31.1428 121.7924 221° Southwest  Level Estimated
Mon 07:13:00 AM 31.1428 121.7924 221° Southwest  Level Estimated
Mon 07:14:00 AM 31.1428 121.7924 221° Southwest  Level Estimated
Mon 07:15:00 AM 31.1428 121.7924 221° Southwest  Level Estimated

Login

Don't have an account? Register now (free) for customized features, flight alerts, and more!